world map with LIVR marked

LIVR - Location

This information may not be accurate or current and is not valid for navigation or flight planning. No warranty of fitness for any purpose is made or implied.

flag of Italy

Donate via PayPal

Additional information is available on the NEW Great Circle Mapper

Location
City:  Rolle Pass, Italy
ICAO:LIVR

Details
Latitude:46°18'N (46.300)
Longitude:11°47'E (11.783)
Elevation:6581 ft (2006 m)

Time
Timezone:UTC+1 (DST+4)
Local Time:

Weather
METAR:LIVR  041355Z 35002KT CAVOK M05/M09 Q1019 RMK SKC MON LIB VIS MIN 9999

Related Locations
Nearby:
Farthest:CHT: 12000 mi / 19313 km
Waitangi [Tuuta], CIT, NZ

Find:

   beyond  
but within

Other Information
Maps:
Sources:

  


 


Great Circle Mapper   Great Circle Mapper
Great Circle Mapper FAQ   Great Circle Mapper FAQ
  Karl's Home Page
KLSē   KLSē Home
   GC on Facebook
Airlines of the World   Airlines of the World
Donate via PayPal


Copyright © 2004-2019, Karl L. Swartz. All rights reserved.
All trademarks mentioned herein belong to their respective owners.

Please see credits for attribution and copyright information.

Karl Swartz <karl@kls2.com>
  Powered by FreeBSD
Valid HTML 4.01!
Labeled with ICRA
hCard Microformat
Geo Microformat